sensor_id;sensor_type;location;lat;lon;timestamp;P1;durP1;ratioP1;P2;durP2;ratioP2
5149;SDS011;2593;52.466;13.436;2022-12-22T00:01:32;32.40;;;17.10;;
5149;SDS011;2593;52.466;13.436;2022-12-22T00:04:17;23.03;;;15.60;;
5149;SDS011;2593;52.466;13.436;2022-12-22T00:07:01;30.17;;;16.63;;
5149;SDS011;2593;52.466;13.436;2022-12-22T00:09:45;24.87;;;15.00;;
5149;SDS011;2593;52.466;13.436;2022-12-22T00:12:29;22.67;;;14.83;;
5149;SDS011;2593;52.466;13.436;2022-12-22T00:15:14;22.10;;;15.57;;
5149;SDS011;2593;52.466;13.436;2022-12-22T00:18:00;22.83;;;15.70;;
5149;SDS011;2593;52.466;13.436;2022-12-22T00:20:45;22.07;;;15.50;;
5149;SDS011;2593;52.466;13.436;2022-12-22T00:23:29;21.17;;;14.07;;
5149;SDS011;2593;52.466;13.436;2022-12-22T00:26:14;23.60;;;15.33;;
5149;SDS011;2593;52.466;13.436;2022-12-22T00:28:59;23.63;;;15.27;;
5149;SDS011;2593;52.466;13.436;2022-12-22T00:31:44;27.83;;;16.73;;
5149;SDS011;2593;52.466;13.436;2022-12-22T00:34:29;24.80;;;15.37;;
5149;SDS011;2593;52.466;13.436;2022-12-22T00:37:19;25.07;;;15.77;;
5149;SDS011;2593;52.466;13.436;2022-12-22T00:40:07;20.30;;;14.17;;
5149;SDS011;2593;52.466;13.436;2022-12-22T00:43:02;22.53;;;15.03;;
5149;SDS011;2593;52.466;13.436;2022-12-22T00:45:46;23.90;;;15.20;;
5149;SDS011;2593;52.466;13.436;2022-12-22T00:48:31;26.20;;;16.93;;
5149;SDS011;2593;52.466;13.436;2022-12-22T00:51:16;22.97;;;14.77;;
5149;SDS011;2593;52.466;13.436;2022-12-22T00:54:00;22.13;;;15.07;;
5149;SDS011;2593;52.466;13.436;2022-12-22T00:56:44;31.80;;;16.17;;
5149;SDS011;2593;52.466;13.436;2022-12-22T00:59:28;21.80;;;15.90;;
5149;SDS011;2593;52.466;13.436;2022-12-22T01:02:13;25.53;;;16.80;;
5149;SDS011;2593;52.466;13.436;2022-12-22T01:04:57;23.17;;;14.80;;
5149;SDS011;2593;52.466;13.436;2022-12-22T01:07:41;24.73;;;15.27;;
5149;SDS011;2593;52.466;13.436;2022-12-22T01:10:26;21.43;;;14.20;;
5149;SDS011;2593;52.466;13.436;2022-12-22T01:13:13;20.93;;;15.20;;
5149;SDS011;2593;52.466;13.436;2022-12-22T01:15:58;25.87;;;16.83;;
5149;SDS011;2593;52.466;13.436;2022-12-22T01:18:42;24.67;;;14.97;;
5149;SDS011;2593;52.466;13.436;2022-12-22T01:21:26;25.80;;;15.60;;
5149;SDS011;2593;52.466;13.436;2022-12-22T01:24:11;27.60;;;16.37;;
5149;SDS011;2593;52.466;13.436;2022-12-22T01:26:57;22.90;;;15.47;;
5149;SDS011;2593;52.466;13.436;2022-12-22T01:29:41;24.03;;;15.03;;
5149;SDS011;2593;52.466;13.436;2022-12-22T01:32:26;33.37;;;17.03;;
5149;SDS011;2593;52.466;13.436;2022-12-22T01:35:24;30.07;;;16.30;;
5149;SDS011;2593;52.466;13.436;2022-12-22T01:38:11;23.83;;;15.17;;
5149;SDS011;2593;52.466;13.436;2022-12-22T01:40:55;25.27;;;16.10;;
5149;SDS011;2593;52.466;13.436;2022-12-22T01:43:41;23.43;;;14.03;;
5149;SDS011;2593;52.466;13.436;2022-12-22T01:46:29;26.10;;;16.23;;
5149;SDS011;2593;52.466;13.436;2022-12-22T01:49:25;20.77;;;13.87;;
5149;SDS011;2593;52.466;13.436;2022-12-22T01:52:25;22.23;;;13.93;;
5149;SDS011;2593;52.466;13.436;2022-12-22T01:55:14;29.30;;;15.13;;
5149;SDS011;2593;52.466;13.436;2022-12-22T01:58:02;22.90;;;14.70;;
5149;SDS011;2593;52.466;13.436;2022-12-22T02:00:49;20.07;;;13.97;;
5149;SDS011;2593;52.466;13.436;2022-12-22T02:03:33;23.43;;;14.73;;
5149;SDS011;2593;52.466;13.436;2022-12-22T02:06:25;19.93;;;13.93;;
5149;SDS011;2593;52.466;13.436;2022-12-22T02:15:41;21.33;;;14.20;;
5149;SDS011;2593;52.466;13.436;2022-12-22T02:18:33;17.63;;;12.60;;
5149;SDS011;2593;52.466;13.436;2022-12-22T02:24:59;22.00;;;13.13;;
5149;SDS011;2593;52.466;13.436;2022-12-22T02:27:48;22.20;;;13.77;;
5149;SDS011;2593;52.466;13.436;2022-12-22T02:30:34;19.50;;;13.07;;
5149;SDS011;2593;52.466;13.436;2022-12-22T02:33:19;21.47;;;13.13;;
5149;SDS011;2593;52.466;13.436;2022-12-22T02:36:12;29.03;;;13.47;;
5149;SDS011;2593;52.466;13.436;2022-12-22T02:42:22;18.83;;;12.27;;
5149;SDS011;2593;52.466;13.436;2022-12-22T02:48:17;21.30;;;12.70;;
5149;SDS011;2593;52.466;13.436;2022-12-22T02:51:18;18.40;;;12.70;;
5149;SDS011;2593;52.466;13.436;2022-12-22T02:54:07;17.70;;;12.20;;
5149;SDS011;2593;52.466;13.436;2022-12-22T02:56:52;19.20;;;12.47;;
5149;SDS011;2593;52.466;13.436;2022-12-22T02:59:36;17.00;;;10.97;;
5149;SDS011;2593;52.466;13.436;2022-12-22T03:02:20;17.10;;;12.37;;
5149;SDS011;2593;52.466;13.436;2022-12-22T03:05:04;17.10;;;12.03;;
5149;SDS011;2593;52.466;13.436;2022-12-22T03:07:48;16.13;;;10.57;;
5149;SDS011;2593;52.466;13.436;2022-12-22T03:10:32;12.90;;;11.50;;
5149;SDS011;2593;52.466;13.436;2022-12-22T03:13:16;19.00;;;12.37;;
5149;SDS011;2593;52.466;13.436;2022-12-22T03:16:01;16.30;;;11.30;;
5149;SDS011;2593;52.466;13.436;2022-12-22T03:18:45;19.90;;;12.80;;
5149;SDS011;2593;52.466;13.436;2022-12-22T03:21:29;17.17;;;11.30;;
5149;SDS011;2593;52.466;13.436;2022-12-22T03:24:13;21.13;;;11.37;;
5149;SDS011;2593;52.466;13.436;2022-12-22T03:26:57;15.30;;;11.50;;
5149;SDS011;2593;52.466;13.436;2022-12-22T03:29:23;15.57;;;11.20;;
5149;SDS011;2593;52.466;13.436;2022-12-22T03:31:48;17.40;;;12.00;;
5149;SDS011;2593;52.466;13.436;2022-12-22T03:34:14;19.10;;;11.13;;
5149;SDS011;2593;52.466;13.436;2022-12-22T03:36:39;19.60;;;12.13;;
5149;SDS011;2593;52.466;13.436;2022-12-22T03:39:05;17.93;;;11.23;;
5149;SDS011;2593;52.466;13.436;2022-12-22T03:41:31;17.23;;;9.90;;
5149;SDS011;2593;52.466;13.436;2022-12-22T03:44:15;15.30;;;11.20;;
5149;SDS011;2593;52.466;13.436;2022-12-22T03:46:59;13.30;;;10.93;;
5149;SDS011;2593;52.466;13.436;2022-12-22T03:49:25;23.33;;;11.50;;
5149;SDS011;2593;52.466;13.436;2022-12-22T03:51:51;14.30;;;10.97;;
5149;SDS011;2593;52.466;13.436;2022-12-22T03:54:18;13.63;;;10.60;;
5149;SDS011;2593;52.466;13.436;2022-12-22T03:56:46;12.77;;;10.07;;
5149;SDS011;2593;52.466;13.436;2022-12-22T03:59:13;17.57;;;10.90;;
5149;SDS011;2593;52.466;13.436;2022-12-22T04:01:40;14.53;;;10.00;;
5149;SDS011;2593;52.466;13.436;2022-12-22T04:04:08;19.87;;;11.70;;
5149;SDS011;2593;52.466;13.436;2022-12-22T04:06:34;24.30;;;12.47;;
5149;SDS011;2593;52.466;13.436;2022-12-22T04:09:00;17.73;;;11.20;;
5149;SDS011;2593;52.466;13.436;2022-12-22T04:11:26;15.50;;;12.47;;
5149;SDS011;2593;52.466;13.436;2022-12-22T04:14:10;15.43;;;10.97;;
5149;SDS011;2593;52.466;13.436;2022-12-22T04:16:36;13.40;;;10.20;;
5149;SDS011;2593;52.466;13.436;2022-12-22T04:19:02;14.37;;;11.10;;
5149;SDS011;2593;52.466;13.436;2022-12-22T04:21:28;20.40;;;12.13;;
5149;SDS011;2593;52.466;13.436;2022-12-22T04:23:53;18.40;;;12.27;;
5149;SDS011;2593;52.466;13.436;2022-12-22T04:26:20;18.67;;;11.80;;
5149;SDS011;2593;52.466;13.436;2022-12-22T04:28:48;17.03;;;12.53;;
5149;SDS011;2593;52.466;13.436;2022-12-22T04:31:14;17.70;;;13.30;;
5149;SDS011;2593;52.466;13.436;2022-12-22T04:33:40;21.40;;;13.00;;
5149;SDS011;2593;52.466;13.436;2022-12-22T04:36:06;23.50;;;11.97;;
5149;SDS011;2593;52.466;13.436;2022-12-22T04:38:32;19.00;;;11.67;;
5149;SDS011;2593;52.466;13.436;2022-12-22T04:40:58;23.50;;;11.33;;
5149;SDS011;2593;52.466;13.436;2022-12-22T04:43:23;20.57;;;12.93;;
5149;SDS011;2593;52.466;13.436;2022-12-22T04:45:52;17.17;;;12.33;;
5149;SDS011;2593;52.466;13.436;2022-12-22T04:48:19;17.63;;;11.97;;
5149;SDS011;2593;52.466;13.436;2022-12-22T04:50:48;21.00;;;12.97;;
5149;SDS011;2593;52.466;13.436;2022-12-22T04:53:14;17.80;;;12.10;;
5149;SDS011;2593;52.466;13.436;2022-12-22T04:55:44;14.83;;;12.23;;
5149;SDS011;2593;52.466;13.436;2022-12-22T04:58:13;21.37;;;13.77;;
5149;SDS011;2593;52.466;13.436;2022-12-22T05:00:39;18.17;;;13.00;;
5149;SDS011;2593;52.466;13.436;2022-12-22T05:03:05;25.40;;;14.37;;
5149;SDS011;2593;52.466;13.436;2022-12-22T05:05:32;21.87;;;14.30;;
5149;SDS011;2593;52.466;13.436;2022-12-22T05:07:58;18.77;;;13.10;;
5149;SDS011;2593;52.466;13.436;2022-12-22T05:10:23;22.70;;;13.60;;
5149;SDS011;2593;52.466;13.436;2022-12-22T05:12:49;18.07;;;13.23;;
5149;SDS011;2593;52.466;13.436;2022-12-22T05:15:24;23.03;;;14.27;;
5149;SDS011;2593;52.466;13.436;2022-12-22T05:17:51;21.70;;;14.40;;
5149;SDS011;2593;52.466;13.436;2022-12-22T05:20:17;21.53;;;14.03;;
5149;SDS011;2593;52.466;13.436;2022-12-22T05:22:43;23.40;;;15.10;;
5149;SDS011;2593;52.466;13.436;2022-12-22T05:25:09;26.53;;;15.20;;
5149;SDS011;2593;52.466;13.436;2022-12-22T05:27:34;25.30;;;14.73;;
5149;SDS011;2593;52.466;13.436;2022-12-22T05:30:00;29.93;;;16.67;;
5149;SDS011;2593;52.466;13.436;2022-12-22T05:32:26;24.83;;;15.47;;
5149;SDS011;2593;52.466;13.436;2022-12-22T05:34:51;32.37;;;15.90;;
5149;SDS011;2593;52.466;13.436;2022-12-22T05:37:17;23.70;;;15.30;;
5149;SDS011;2593;52.466;13.436;2022-12-22T05:39:43;28.23;;;16.53;;
5149;SDS011;2593;52.466;13.436;2022-12-22T05:42:09;22.00;;;16.67;;
5149;SDS011;2593;52.466;13.436;2022-12-22T05:44:34;32.97;;;17.07;;
5149;SDS011;2593;52.466;13.436;2022-12-22T05:47:00;26.40;;;16.27;;
5149;SDS011;2593;52.466;13.436;2022-12-22T05:49:25;26.03;;;16.47;;
5149;SDS011;2593;52.466;13.436;2022-12-22T05:51:51;34.57;;;17.83;;
5149;SDS011;2593;52.466;13.436;2022-12-22T05:54:18;35.40;;;16.30;;
5149;SDS011;2593;52.466;13.436;2022-12-22T05:56:44;28.10;;;18.03;;
5149;SDS011;2593;52.466;13.436;2022-12-22T05:59:10;32.70;;;18.43;;
5149;SDS011;2593;52.466;13.436;2022-12-22T06:01:36;30.33;;;17.50;;
5149;SDS011;2593;52.466;13.436;2022-12-22T06:04:02;36.63;;;19.70;;
5149;SDS011;2593;52.466;13.436;2022-12-22T06:06:28;30.10;;;19.90;;
5149;SDS011;2593;52.466;13.436;2022-12-22T06:08:53;27.70;;;17.97;;
5149;SDS011;2593;52.466;13.436;2022-12-22T06:11:20;36.87;;;19.20;;
5149;SDS011;2593;52.466;13.436;2022-12-22T06:13:45;30.50;;;19.83;;
5149;SDS011;2593;52.466;13.436;2022-12-22T06:16:11;37.73;;;19.37;;
5149;SDS011;2593;52.466;13.436;2022-12-22T06:18:37;31.40;;;19.50;;
5149;SDS011;2593;52.466;13.436;2022-12-22T06:21:02;31.93;;;18.20;;
5149;SDS011;2593;52.466;13.436;2022-12-22T06:23:28;29.27;;;18.20;;
5149;SDS011;2593;52.466;13.436;2022-12-22T06:25:55;32.27;;;18.13;;
5149;SDS011;2593;52.466;13.436;2022-12-22T06:28:21;28.30;;;18.80;;
5149;SDS011;2593;52.466;13.436;2022-12-22T06:30:47;26.90;;;17.83;;
5149;SDS011;2593;52.466;13.436;2022-12-22T06:33:13;28.47;;;18.07;;
5149;SDS011;2593;52.466;13.436;2022-12-22T06:35:39;38.70;;;17.30;;
5149;SDS011;2593;52.466;13.436;2022-12-22T06:38:04;29.00;;;18.30;;
5149;SDS011;2593;52.466;13.436;2022-12-22T06:40:30;36.10;;;19.33;;
5149;SDS011;2593;52.466;13.436;2022-12-22T06:42:55;34.97;;;20.10;;
5149;SDS011;2593;52.466;13.436;2022-12-22T06:45:37;26.30;;;17.53;;
5149;SDS011;2593;52.466;13.436;2022-12-22T06:48:07;29.93;;;17.50;;
5149;SDS011;2593;52.466;13.436;2022-12-22T06:50:34;28.93;;;18.10;;
5149;SDS011;2593;52.466;13.436;2022-12-22T06:53:00;30.37;;;18.93;;
5149;SDS011;2593;52.466;13.436;2022-12-22T06:55:26;29.43;;;18.23;;
5149;SDS011;2593;52.466;13.436;2022-12-22T06:57:51;25.70;;;16.60;;
5149;SDS011;2593;52.466;13.436;2022-12-22T07:00:17;28.37;;;18.93;;
5149;SDS011;2593;52.466;13.436;2022-12-22T07:02:43;30.20;;;17.67;;
5149;SDS011;2593;52.466;13.436;2022-12-22T07:05:09;27.33;;;17.10;;
5149;SDS011;2593;52.466;13.436;2022-12-22T07:07:34;32.93;;;18.53;;
5149;SDS011;2593;52.466;13.436;2022-12-22T07:10:00;22.43;;;15.37;;
5149;SDS011;2593;52.466;13.436;2022-12-22T07:12:25;29.53;;;19.27;;
5149;SDS011;2593;52.466;13.436;2022-12-22T07:14:51;36.10;;;19.20;;
5149;SDS011;2593;52.466;13.436;2022-12-22T07:17:17;27.27;;;16.93;;
5149;SDS011;2593;52.466;13.436;2022-12-22T07:19:42;24.47;;;16.57;;
5149;SDS011;2593;52.466;13.436;2022-12-22T07:22:08;31.77;;;17.10;;
5149;SDS011;2593;52.466;13.436;2022-12-22T07:24:34;31.83;;;17.73;;
5149;SDS011;2593;52.466;13.436;2022-12-22T07:27:00;33.47;;;17.27;;
5149;SDS011;2593;52.466;13.436;2022-12-22T07:29:25;29.17;;;17.27;;
5149;SDS011;2593;52.466;13.436;2022-12-22T07:31:51;30.00;;;17.13;;
5149;SDS011;2593;52.466;13.436;2022-12-22T07:34:17;30.87;;;17.93;;
5149;SDS011;2593;52.466;13.436;2022-12-22T07:36:42;32.43;;;17.20;;
5149;SDS011;2593;52.466;13.436;2022-12-22T07:39:08;30.03;;;18.03;;
5149;SDS011;2593;52.466;13.436;2022-12-22T07:41:35;28.53;;;17.03;;
5149;SDS011;2593;52.466;13.436;2022-12-22T07:44:20;33.20;;;16.80;;
5149;SDS011;2593;52.466;13.436;2022-12-22T07:46:45;26.37;;;17.67;;
5149;SDS011;2593;52.466;13.436;2022-12-22T07:49:11;37.33;;;18.53;;
5149;SDS011;2593;52.466;13.436;2022-12-22T07:51:55;29.47;;;16.70;;
5149;SDS011;2593;52.466;13.436;2022-12-22T07:54:22;28.70;;;17.53;;
5149;SDS011;2593;52.466;13.436;2022-12-22T07:56:48;28.23;;;17.10;;
5149;SDS011;2593;52.466;13.436;2022-12-22T07:59:14;32.43;;;17.83;;
5149;SDS011;2593;52.466;13.436;2022-12-22T08:01:40;26.73;;;16.47;;
5149;SDS011;2593;52.466;13.436;2022-12-22T08:04:07;33.33;;;17.97;;
5149;SDS011;2593;52.466;13.436;2022-12-22T08:06:34;27.93;;;16.60;;
5149;SDS011;2593;52.466;13.436;2022-12-22T08:09:01;29.13;;;17.80;;
5149;SDS011;2593;52.466;13.436;2022-12-22T08:11:31;34.80;;;17.93;;
5149;SDS011;2593;52.466;13.436;2022-12-22T08:13:57;32.83;;;18.93;;
5149;SDS011;2593;52.466;13.436;2022-12-22T08:16:23;28.33;;;16.77;;
5149;SDS011;2593;52.466;13.436;2022-12-22T08:18:49;26.23;;;17.00;;
5149;SDS011;2593;52.466;13.436;2022-12-22T08:21:14;29.87;;;16.73;;
5149;SDS011;2593;52.466;13.436;2022-12-22T08:23:41;29.10;;;16.20;;
5149;SDS011;2593;52.466;13.436;2022-12-22T08:26:13;29.60;;;17.60;;
5149;SDS011;2593;52.466;13.436;2022-12-22T08:29:45;27.30;;;15.50;;
5149;SDS011;2593;52.466;13.436;2022-12-22T08:31:44;30.57;;;16.23;;
5149;SDS011;2593;52.466;13.436;2022-12-22T08:34:12;24.50;;;16.00;;
5149;SDS011;2593;52.466;13.436;2022-12-22T08:36:40;25.33;;;15.33;;
5149;SDS011;2593;52.466;13.436;2022-12-22T08:39:09;27.67;;;16.20;;
5149;SDS011;2593;52.466;13.436;2022-12-22T08:41:37;27.70;;;17.60;;
5149;SDS011;2593;52.466;13.436;2022-12-22T08:44:16;28.50;;;16.70;;
5149;SDS011;2593;52.466;13.436;2022-12-22T08:46:44;26.77;;;16.20;;
5149;SDS011;2593;52.466;13.436;2022-12-22T08:49:09;29.07;;;16.70;;
5149;SDS011;2593;52.466;13.436;2022-12-22T08:51:35;32.30;;;17.10;;
5149;SDS011;2593;52.466;13.436;2022-12-22T08:54:01;29.53;;;16.47;;
5149;SDS011;2593;52.466;13.436;2022-12-22T08:56:28;27.03;;;17.13;;
5149;SDS011;2593;52.466;13.436;2022-12-22T08:58:55;32.53;;;16.70;;
5149;SDS011;2593;52.466;13.436;2022-12-22T09:01:21;28.80;;;16.00;;
5149;SDS011;2593;52.466;13.436;2022-12-22T09:03:51;24.17;;;15.23;;
5149;SDS011;2593;52.466;13.436;2022-12-22T09:06:19;27.97;;;16.10;;
5149;SDS011;2593;52.466;13.436;2022-12-22T09:08:45;32.10;;;16.30;;
5149;SDS011;2593;52.466;13.436;2022-12-22T09:11:12;25.37;;;14.47;;
5149;SDS011;2593;52.466;13.436;2022-12-22T09:13:38;39.27;;;21.80;;
5149;SDS011;2593;52.466;13.436;2022-12-22T09:16:07;34.30;;;15.73;;
5149;SDS011;2593;52.466;13.436;2022-12-22T09:18:34;25.10;;;14.80;;
5149;SDS011;2593;52.466;13.436;2022-12-22T09:21:00;27.83;;;15.37;;
5149;SDS011;2593;52.466;13.436;2022-12-22T09:23:26;27.30;;;15.70;;
5149;SDS011;2593;52.466;13.436;2022-12-22T09:25:53;20.57;;;13.80;;
5149;SDS011;2593;52.466;13.436;2022-12-22T09:28:19;24.23;;;15.87;;
5149;SDS011;2593;52.466;13.436;2022-12-22T09:30:49;21.70;;;14.77;;
5149;SDS011;2593;52.466;13.436;2022-12-22T09:33:15;26.53;;;14.87;;
5149;SDS011;2593;52.466;13.436;2022-12-22T09:35:41;18.53;;;13.07;;
5149;SDS011;2593;52.466;13.436;2022-12-22T09:38:06;22.10;;;14.50;;
5149;SDS011;2593;52.466;13.436;2022-12-22T09:40:32;25.17;;;15.70;;
5149;SDS011;2593;52.466;13.436;2022-12-22T09:42:58;21.70;;;13.63;;
5149;SDS011;2593;52.466;13.436;2022-12-22T09:45:24;26.87;;;13.77;;
5149;SDS011;2593;52.466;13.436;2022-12-22T09:47:51;23.73;;;13.50;;
5149;SDS011;2593;52.466;13.436;2022-12-22T09:50:22;20.50;;;12.47;;
5149;SDS011;2593;52.466;13.436;2022-12-22T09:52:59;19.07;;;12.00;;
5149;SDS011;2593;52.466;13.436;2022-12-22T09:55:35;26.97;;;13.80;;
5149;SDS011;2593;52.466;13.436;2022-12-22T09:58:02;18.47;;;12.23;;
5149;SDS011;2593;52.466;13.436;2022-12-22T10:00:28;21.83;;;13.97;;
5149;SDS011;2593;52.466;13.436;2022-12-22T10:05:40;20.40;;;13.90;;
5149;SDS011;2593;52.466;13.436;2022-12-22T10:08:11;23.10;;;13.50;;
5149;SDS011;2593;52.466;13.436;2022-12-22T10:10:42;27.60;;;12.00;;
5149;SDS011;2593;52.466;13.436;2022-12-22T10:13:17;25.20;;;12.80;;
5149;SDS011;2593;52.466;13.436;2022-12-22T10:15:44;18.33;;;12.30;;
5149;SDS011;2593;52.466;13.436;2022-12-22T10:18:11;27.00;;;14.63;;
5149;SDS011;2593;52.466;13.436;2022-12-22T10:20:39;24.03;;;13.70;;
5149;SDS011;2593;52.466;13.436;2022-12-22T10:28:23;17.83;;;11.20;;
5149;SDS011;2593;52.466;13.436;2022-12-22T10:33:36;21.80;;;11.63;;
5149;SDS011;2593;52.466;13.436;2022-12-22T10:36:03;14.83;;;10.73;;
5149;SDS011;2593;52.466;13.436;2022-12-22T10:43:46;16.67;;;11.03;;
5149;SDS011;2593;52.466;13.436;2022-12-22T10:46:12;18.00;;;10.70;;
5149;SDS011;2593;52.466;13.436;2022-12-22T10:48:38;23.57;;;11.60;;
5149;SDS011;2593;52.466;13.436;2022-12-22T10:51:05;15.90;;;11.20;;
5149;SDS011;2593;52.466;13.436;2022-12-22T10:53:40;16.90;;;11.40;;
5149;SDS011;2593;52.466;13.436;2022-12-22T10:56:17;13.53;;;10.17;;
5149;SDS011;2593;52.466;13.436;2022-12-22T10:58:56;17.33;;;10.00;;
5149;SDS011;2593;52.466;13.436;2022-12-22T11:01:36;18.07;;;9.97;;
5149;SDS011;2593;52.466;13.436;2022-12-22T11:04:15;16.60;;;10.23;;
5149;SDS011;2593;52.466;13.436;2022-12-22T11:06:46;18.77;;;10.17;;
5149;SDS011;2593;52.466;13.436;2022-12-22T11:09:12;13.93;;;9.93;;
5149;SDS011;2593;52.466;13.436;2022-12-22T11:16:50;16.60;;;12.43;;
5149;SDS011;2593;52.466;13.436;2022-12-22T11:22:30;18.50;;;11.07;;
5149;SDS011;2593;52.466;13.436;2022-12-22T11:25:06;12.00;;;9.60;;
5149;SDS011;2593;52.466;13.436;2022-12-22T11:30:17;12.67;;;9.60;;
5149;SDS011;2593;52.466;13.436;2022-12-22T11:35:29;12.23;;;8.93;;
5149;SDS011;2593;52.466;13.436;2022-12-22T11:40:48;13.97;;;9.50;;
5149;SDS011;2593;52.466;13.436;2022-12-22T11:43:21;15.63;;;10.07;;
5149;SDS011;2593;52.466;13.436;2022-12-22T11:46:14;16.63;;;11.40;;
5149;SDS011;2593;52.466;13.436;2022-12-22T12:00:04;12.77;;;9.83;;
5149;SDS011;2593;52.466;13.436;2022-12-22T12:02:48;15.87;;;9.80;;
5149;SDS011;2593;52.466;13.436;2022-12-22T12:10:46;17.90;;;11.00;;
5149;SDS011;2593;52.466;13.436;2022-12-22T12:30:04;15.17;;;11.07;;
5149;SDS011;2593;52.466;13.436;2022-12-22T12:32:46;16.33;;;10.73;;
5149;SDS011;2593;52.466;13.436;2022-12-22T12:41:17;17.17;;;11.57;;
5149;SDS011;2593;52.466;13.436;2022-12-22T12:44:00;14.50;;;10.50;;
5149;SDS011;2593;52.466;13.436;2022-12-22T12:51:58;10.53;;;8.40;;
5149;SDS011;2593;52.466;13.436;2022-12-22T12:56:55;13.20;;;9.20;;
5149;SDS011;2593;52.466;13.436;2022-12-22T12:59:46;12.63;;;9.00;;
5149;SDS011;2593;52.466;13.436;2022-12-22T13:10:33;12.17;;;9.40;;
5149;SDS011;2593;52.466;13.436;2022-12-22T13:13:01;11.67;;;9.17;;
5149;SDS011;2593;52.466;13.436;2022-12-22T13:17:52;10.43;;;8.13;;
5149;SDS011;2593;52.466;13.436;2022-12-22T13:20:26;13.67;;;10.70;;
5149;SDS011;2593;52.466;13.436;2022-12-22T13:22:55;19.30;;;9.60;;
5149;SDS011;2593;52.466;13.436;2022-12-22T13:25:23;15.20;;;9.87;;
5149;SDS011;2593;52.466;13.436;2022-12-22T13:27:54;16.17;;;10.43;;
5149;SDS011;2593;52.466;13.436;2022-12-22T13:30:22;11.47;;;9.13;;
5149;SDS011;2593;52.466;13.436;2022-12-22T13:32:48;12.90;;;10.30;;
5149;SDS011;2593;52.466;13.436;2022-12-22T13:35:16;15.33;;;10.47;;
5149;SDS011;2593;52.466;13.436;2022-12-22T13:37:48;16.30;;;11.20;;
5149;SDS011;2593;52.466;13.436;2022-12-22T13:40:21;16.67;;;11.37;;
5149;SDS011;2593;52.466;13.436;2022-12-22T13:45:43;17.10;;;10.73;;
5149;SDS011;2593;52.466;13.436;2022-12-22T13:50:51;14.10;;;9.47;;
5149;SDS011;2593;52.466;13.436;2022-12-22T13:53:18;19.60;;;13.07;;
5149;SDS011;2593;52.466;13.436;2022-12-22T13:55:54;20.17;;;13.30;;
5149;SDS011;2593;52.466;13.436;2022-12-22T13:58:30;18.97;;;12.63;;
5149;SDS011;2593;52.466;13.436;2022-12-22T14:03:36;56.27;;;24.37;;
5149;SDS011;2593;52.466;13.436;2022-12-22T14:06:02;36.40;;;18.17;;
5149;SDS011;2593;52.466;13.436;2022-12-22T14:08:42;22.80;;;14.33;;
5149;SDS011;2593;52.466;13.436;2022-12-22T14:11:08;16.43;;;11.77;;
5149;SDS011;2593;52.466;13.436;2022-12-22T14:13:33;15.60;;;10.93;;
5149;SDS011;2593;52.466;13.436;2022-12-22T14:16:00;16.90;;;9.80;;
5149;SDS011;2593;52.466;13.436;2022-12-22T14:18:26;14.67;;;10.60;;
5149;SDS011;2593;52.466;13.436;2022-12-22T14:20:53;13.60;;;10.10;;
5149;SDS011;2593;52.466;13.436;2022-12-22T14:23:20;15.80;;;11.83;;
5149;SDS011;2593;52.466;13.436;2022-12-22T14:25:49;18.07;;;11.20;;
5149;SDS011;2593;52.466;13.436;2022-12-22T14:30:54;49.10;;;24.17;;
5149;SDS011;2593;52.466;13.436;2022-12-22T14:35:50;31.33;;;17.60;;
5149;SDS011;2593;52.466;13.436;2022-12-22T14:38:27;25.80;;;14.93;;
5149;SDS011;2593;52.466;13.436;2022-12-22T14:40:53;46.83;;;21.97;;
5149;SDS011;2593;52.466;13.436;2022-12-22T14:45:45;31.30;;;15.83;;
5149;SDS011;2593;52.466;13.436;2022-12-22T14:48:56;27.70;;;17.40;;
5149;SDS011;2593;52.466;13.436;2022-12-22T14:51:03;21.97;;;13.70;;
5149;SDS011;2593;52.466;13.436;2022-12-22T14:53:42;20.30;;;11.10;;
5149;SDS011;2593;52.466;13.436;2022-12-22T14:56:11;8.27;;;7.20;;
5149;SDS011;2593;52.466;13.436;2022-12-22T14:58:40;17.03;;;10.20;;
5149;SDS011;2593;52.466;13.436;2022-12-22T15:01:18;25.13;;;14.53;;
5149;SDS011;2593;52.466;13.436;2022-12-22T15:03:44;25.07;;;12.30;;
5149;SDS011;2593;52.466;13.436;2022-12-22T15:09:37;19.63;;;9.83;;
5149;SDS011;2593;52.466;13.436;2022-12-22T15:11:39;19.60;;;11.50;;
5149;SDS011;2593;52.466;13.436;2022-12-22T15:14:16;14.43;;;9.07;;
5149;SDS011;2593;52.466;13.436;2022-12-22T15:16:47;7.53;;;5.93;;
5149;SDS011;2593;52.466;13.436;2022-12-22T15:19:14;6.40;;;5.60;;
5149;SDS011;2593;52.466;13.436;2022-12-22T15:21:41;8.50;;;6.70;;
5149;SDS011;2593;52.466;13.436;2022-12-22T15:24:10;9.77;;;6.93;;
5149;SDS011;2593;52.466;13.436;2022-12-22T15:26:37;10.10;;;7.90;;
5149;SDS011;2593;52.466;13.436;2022-12-22T15:29:03;12.50;;;7.37;;
5149;SDS011;2593;52.466;13.436;2022-12-22T15:31:28;11.57;;;8.27;;
5149;SDS011;2593;52.466;13.436;2022-12-22T15:33:54;30.80;;;15.37;;
5149;SDS011;2593;52.466;13.436;2022-12-22T15:36:23;44.77;;;20.73;;
5149;SDS011;2593;52.466;13.436;2022-12-22T15:38:49;27.93;;;13.97;;
5149;SDS011;2593;52.466;13.436;2022-12-22T15:41:15;21.47;;;12.30;;
5149;SDS011;2593;52.466;13.436;2022-12-22T15:43:41;16.80;;;9.63;;
5149;SDS011;2593;52.466;13.436;2022-12-22T15:46:06;25.63;;;12.50;;
5149;SDS011;2593;52.466;13.436;2022-12-22T15:48:35;21.47;;;11.97;;
5149;SDS011;2593;52.466;13.436;2022-12-22T15:51:04;16.77;;;9.23;;
5149;SDS011;2593;52.466;13.436;2022-12-22T15:53:31;9.20;;;6.80;;
5149;SDS011;2593;52.466;13.436;2022-12-22T15:55:58;11.57;;;8.03;;
5149;SDS011;2593;52.466;13.436;2022-12-22T15:58:25;14.93;;;10.13;;
5149;SDS011;2593;52.466;13.436;2022-12-22T16:00:54;13.37;;;10.20;;
5149;SDS011;2593;52.466;13.436;2022-12-22T16:03:20;12.57;;;10.10;;
5149;SDS011;2593;52.466;13.436;2022-12-22T16:05:45;10.93;;;8.77;;
5149;SDS011;2593;52.466;13.436;2022-12-22T16:08:11;16.17;;;10.60;;
5149;SDS011;2593;52.466;13.436;2022-12-22T16:10:40;25.43;;;13.33;;
5149;SDS011;2593;52.466;13.436;2022-12-22T16:13:10;24.87;;;13.67;;
5149;SDS011;2593;52.466;13.436;2022-12-22T16:15:37;25.10;;;13.87;;
5149;SDS011;2593;52.466;13.436;2022-12-22T16:18:03;17.50;;;11.80;;
5149;SDS011;2593;52.466;13.436;2022-12-22T16:20:31;20.47;;;13.97;;
5149;SDS011;2593;52.466;13.436;2022-12-22T16:23:01;19.50;;;11.83;;
5149;SDS011;2593;52.466;13.436;2022-12-22T16:25:32;18.10;;;12.70;;
5149;SDS011;2593;52.466;13.436;2022-12-22T16:28:00;23.27;;;13.77;;
5149;SDS011;2593;52.466;13.436;2022-12-22T16:30:27;24.57;;;16.00;;
5149;SDS011;2593;52.466;13.436;2022-12-22T16:32:55;24.73;;;15.00;;
5149;SDS011;2593;52.466;13.436;2022-12-22T16:35:22;26.77;;;15.53;;
5149;SDS011;2593;52.466;13.436;2022-12-22T16:37:49;34.90;;;18.40;;
5149;SDS011;2593;52.466;13.436;2022-12-22T16:40:18;34.70;;;18.03;;
5149;SDS011;2593;52.466;13.436;2022-12-22T16:42:47;28.90;;;17.33;;
5149;SDS011;2593;52.466;13.436;2022-12-22T16:45:28;26.33;;;16.00;;
5149;SDS011;2593;52.466;13.436;2022-12-22T16:47:56;29.40;;;17.90;;
5149;SDS011;2593;52.466;13.436;2022-12-22T16:50:25;36.10;;;23.60;;
5149;SDS011;2593;52.466;13.436;2022-12-22T16:52:58;22.80;;;15.17;;
5149;SDS011;2593;52.466;13.436;2022-12-22T16:55:24;28.00;;;16.37;;
5149;SDS011;2593;52.466;13.436;2022-12-22T16:57:50;24.70;;;15.53;;
5149;SDS011;2593;52.466;13.436;2022-12-22T17:00:17;26.17;;;16.97;;
5149;SDS011;2593;52.466;13.436;2022-12-22T17:02:45;29.47;;;15.30;;
5149;SDS011;2593;52.466;13.436;2022-12-22T17:05:33;28.67;;;16.77;;
5149;SDS011;2593;52.466;13.436;2022-12-22T17:08:02;29.67;;;16.53;;
5149;SDS011;2593;52.466;13.436;2022-12-22T17:10:31;25.73;;;16.27;;